createdAt,value
2023-01-17T00:00:45.369Z,90.83
2023-01-17T00:01:45.385Z,90.93
2023-01-17T00:02:45.384Z,90.93
2023-01-17T00:03:45.437Z,91.03
2023-01-17T00:04:45.400Z,91.03
2023-01-17T00:05:45.334Z,91.03
2023-01-17T00:06:45.300Z,90.93
2023-01-17T00:07:45.315Z,90.83
2023-01-17T00:08:45.309Z,90.72
2023-01-17T00:09:45.305Z,90.62
2023-01-17T00:10:45.244Z,90.52
2023-01-17T00:11:45.257Z,90.41
2023-01-17T00:12:45.248Z,90.41
2023-01-17T00:13:45.227Z,90.20
2023-01-17T00:14:45.198Z,90.20
2023-01-17T00:15:45.237Z,90.20
2023-01-17T00:16:45.176Z,90.20
2023-01-17T00:17:45.207Z,90.20
2023-01-17T00:18:45.153Z,90.31
2023-01-17T00:19:45.152Z,90.20
2023-01-17T00:20:45.115Z,90.31
2023-01-17T00:21:45.129Z,90.31
2023-01-17T00:22:45.085Z,90.52
2023-01-17T00:23:45.126Z,90.52
2023-01-17T00:24:45.062Z,90.52
2023-01-17T00:25:45.087Z,90.31
2023-01-17T00:26:45.057Z,90.31
2023-01-17T00:27:45.057Z,90.31
2023-01-17T00:28:45.038Z,90.31
2023-01-17T00:29:45.028Z,90.10
2023-01-17T00:30:44.993Z,90.10
2023-01-17T00:31:45.036Z,90.04
2023-01-17T00:32:44.970Z,89.83
2023-01-17T00:33:45.031Z,89.83
2023-01-17T00:34:44.939Z,89.94
2023-01-17T00:35:44.952Z,89.73
2023-01-17T00:36:44.927Z,89.73
2023-01-17T00:37:44.926Z,89.73
2023-01-17T00:38:44.904Z,89.73
2023-01-17T00:39:44.894Z,89.62
2023-01-17T00:40:44.870Z,89.62
2023-01-17T00:41:44.882Z,89.73
2023-01-17T00:42:44.832Z,89.94
2023-01-17T00:43:44.871Z,89.83
2023-01-17T00:44:44.807Z,89.87
2023-01-17T00:45:44.814Z,89.87
2023-01-17T00:46:44.856Z,89.87
2023-01-17T00:47:44.787Z,89.98
2023-01-17T00:48:44.789Z,90.08
2023-01-17T00:49:44.781Z,90.08
2023-01-17T00:50:44.738Z,89.98
2023-01-17T00:51:44.775Z,89.87
2023-01-17T00:52:44.718Z,89.67
2023-01-17T00:53:44.714Z,89.36
2023-01-17T00:54:44.678Z,89.15
2023-01-17T00:55:44.695Z,89.15
2023-01-17T00:56:44.689Z,89.15
2023-01-17T00:57:44.673Z,89.04
2023-01-17T00:58:44.633Z,88.94
2023-01-17T00:59:44.664Z,88.62
2023-01-17T01:00:44.648Z,88.52
2023-01-17T01:01:44.858Z,88.42
2023-01-17T01:02:44.656Z,88.31
2023-01-17T01:03:44.582Z,88.31
2023-01-17T01:04:44.548Z,88.21
2023-01-17T01:05:44.585Z,88.42
2023-01-17T01:06:44.533Z,88.42
2023-01-17T01:07:44.574Z,88.42
2023-01-17T01:08:44.513Z,88.42
2023-01-17T01:09:44.513Z,88.42
2023-01-17T01:10:44.474Z,88.42
2023-01-17T01:11:44.491Z,88.42
2023-01-17T01:12:44.442Z,88.52
2023-01-17T01:13:44.486Z,88.48
2023-01-17T01:14:44.447Z,88.38
2023-01-17T01:15:44.442Z,88.28
2023-01-17T01:16:44.420Z,88.07
2023-01-17T01:17:44.413Z,88.17
2023-01-17T01:18:44.390Z,88.07
2023-01-17T01:19:44.435Z,87.96
2023-01-17T01:20:44.351Z,87.96
2023-01-17T01:21:44.353Z,87.96
2023-01-17T01:22:44.343Z,87.86
2023-01-17T01:23:44.332Z,87.86
2023-01-17T01:24:44.315Z,87.86
2023-01-17T01:25:44.322Z,87.96
2023-01-17T01:26:44.274Z,88.17
2023-01-17T01:27:44.303Z,88.28
2023-01-17T01:28:44.276Z,87.96
2023-01-17T01:29:44.258Z,87.86
2023-01-17T01:30:44.244Z,87.76
2023-01-17T01:31:44.291Z,87.92
2023-01-17T01:32:44.195Z,87.82
2023-01-17T01:33:44.231Z,87.71
2023-01-17T01:34:44.167Z,87.71
2023-01-17T01:35:44.220Z,87.71
2023-01-17T01:36:44.153Z,87.61
2023-01-17T01:37:44.152Z,87.51
2023-01-17T01:38:44.115Z,87.40
2023-01-17T01:39:44.130Z,87.61
2023-01-17T01:40:44.111Z,87.61
2023-01-17T01:41:44.119Z,87.40
2023-01-17T01:42:44.056Z,87.19
2023-01-17T01:43:44.095Z,87.30
2023-01-17T01:44:44.055Z,87.40
2023-01-17T01:45:44.124Z,87.40
2023-01-17T01:46:44.021Z,87.51
2023-01-17T01:47:44.054Z,87.30
2023-01-17T01:48:43.974Z,87.51
2023-01-17T01:49:43.992Z,87.61
2023-01-17T01:50:43.976Z,87.71
2023-01-17T01:51:43.976Z,87.61
2023-01-17T01:52:43.953Z,87.61
2023-01-17T01:53:43.942Z,87.61
2023-01-17T01:54:43.909Z,87.65
2023-01-17T01:55:43.948Z,87.71
2023-01-17T01:56:43.909Z,87.76
2023-01-17T01:57:43.885Z,87.76
2023-01-17T01:58:43.852Z,87.86
2023-01-17T01:59:43.882Z,87.86
2023-01-17T02:00:43.925Z,87.96
2023-01-17T02:01:43.984Z,87.96
2023-01-17T02:02:43.852Z,87.96
2023-01-17T02:03:43.862Z,87.96
2023-01-17T02:04:43.787Z,88.07
2023-01-17T02:05:43.786Z,88.07
2023-01-17T02:06:43.770Z,88.07
2023-01-17T02:07:43.764Z,87.96
2023-01-17T02:08:43.754Z,87.86
2023-01-17T02:09:43.752Z,87.96
2023-01-17T02:10:43.719Z,87.86
2023-01-17T02:11:43.722Z,87.86
2023-01-17T02:12:43.675Z,87.86
2023-01-17T02:13:43.687Z,87.96
2023-01-17T02:14:43.665Z,88.07
2023-01-17T02:15:43.666Z,87.86
2023-01-17T02:16:43.693Z,87.86
2023-01-17T02:17:43.655Z,87.65
2023-01-17T02:18:43.636Z,87.65
2023-01-17T02:19:43.627Z,87.76
2023-01-17T02:20:43.581Z,87.86
2023-01-17T02:21:43.626Z,87.96
2023-01-17T02:22:43.556Z,88.07
2023-01-17T02:23:43.572Z,88.07
2023-01-17T02:24:43.523Z,88.17
2023-01-17T02:25:43.716Z,88.17
2023-01-17T02:26:43.489Z,88.38
2023-01-17T02:27:43.525Z,88.59
2023-01-17T02:28:43.479Z,88.79
2023-01-17T02:29:43.513Z,89.00
2023-01-17T02:30:43.465Z,89.25
2023-01-17T02:31:43.530Z,89.31
2023-01-17T02:32:43.474Z,89.42
2023-01-17T02:33:43.453Z,89.52
2023-01-17T02:34:43.402Z,89.62
2023-01-17T02:35:43.439Z,89.87
2023-01-17T02:36:43.410Z,89.98
2023-01-17T02:37:43.408Z,90.19
2023-01-17T02:38:43.351Z,90.39
2023-01-17T02:39:43.351Z,90.56
2023-01-17T02:40:43.325Z,90.77
2023-01-17T02:41:43.369Z,90.87
2023-01-17T02:42:43.318Z,90.97
2023-01-17T02:43:43.307Z,91.08
2023-01-17T02:44:43.281Z,91.18
2023-01-17T02:45:43.333Z,91.18
2023-01-17T02:46:43.276Z,91.28
2023-01-17T02:47:43.264Z,91.28
2023-01-17T02:48:43.238Z,91.28
2023-01-17T02:49:43.217Z,91.28
2023-01-17T02:50:43.202Z,91.39
2023-01-17T02:51:43.208Z,91.39
2023-01-17T02:52:43.199Z,91.49
2023-01-17T02:53:43.168Z,91.60
2023-01-17T02:54:43.139Z,91.60
2023-01-17T02:55:43.165Z,91.60
2023-01-17T02:56:43.150Z,91.70
2023-01-17T02:57:43.163Z,91.70
2023-01-17T02:58:43.096Z,91.80
2023-01-17T02:59:43.099Z,91.80
2023-01-17T03:00:43.070Z,91.80
2023-01-17T03:01:43.262Z,91.91
2023-01-17T03:02:43.196Z,91.91
2023-01-17T03:03:43.066Z,91.91
2023-01-17T03:04:43.031Z,91.91
2023-01-17T03:05:43.052Z,91.91
2023-01-17T03:06:42.978Z,91.91
2023-01-17T03:07:43.013Z,91.80
2023-01-17T03:08:42.975Z,91.70
2023-01-17T03:09:42.970Z,91.60
2023-01-17T03:10:42.989Z,91.49
2023-01-17T03:11:42.911Z,91.39
2023-01-17T03:12:42.948Z,91.49
2023-01-17T03:13:42.901Z,91.39
2023-01-17T03:14:42.921Z,91.39
2023-01-17T03:15:42.890Z,91.39
2023-01-17T03:16:42.948Z,91.28
2023-01-17T03:17:42.869Z,91.28
2023-01-17T03:18:42.864Z,91.08
2023-01-17T03:19:42.840Z,91.08
2023-01-17T03:20:42.858Z,91.08
2023-01-17T03:21:42.810Z,91.18
2023-01-17T03:22:42.829Z,91.18
2023-01-17T03:23:42.784Z,91.28
2023-01-17T03:24:42.785Z,91.28
2023-01-17T03:25:42.772Z,91.18
2023-01-17T03:26:42.758Z,91.28
2023-01-17T03:27:42.714Z,91.24
2023-01-17T03:28:42.748Z,91.28
2023-01-17T03:29:42.728Z,91.39
2023-01-17T03:30:42.744Z,91.39
2023-01-17T03:31:42.668Z,91.49
2023-01-17T03:32:42.678Z,91.49
2023-01-17T03:33:42.674Z,91.49
2023-01-17T03:34:42.670Z,91.39
2023-01-17T03:35:42.619Z,91.39
2023-01-17T03:36:42.628Z,91.49
2023-01-17T03:37:42.598Z,91.49
2023-01-17T03:38:42.601Z,91.49
2023-01-17T03:39:42.592Z,91.60
2023-01-17T03:40:42.593Z,91.60
2023-01-17T03:41:42.530Z,91.60
2023-01-17T03:42:42.573Z,91.60
2023-01-17T03:43:42.509Z,91.70
2023-01-17T03:44:42.525Z,91.70
2023-01-17T03:45:42.536Z,91.60
2023-01-17T03:46:42.525Z,91.39
2023-01-17T03:47:42.466Z,91.28
2023-01-17T03:48:42.480Z,91.28
2023-01-17T03:49:42.449Z,91.28
2023-01-17T03:50:42.464Z,91.39
2023-01-17T03:51:42.403Z,91.39
2023-01-17T03:52:42.422Z,91.39
2023-01-17T03:53:42.404Z,91.39
2023-01-17T03:54:42.411Z,91.28
2023-01-17T03:55:42.350Z,91.39
2023-01-17T03:56:42.381Z,91.39
2023-01-17T03:57:42.334Z,91.39
2023-01-17T03:58:42.346Z,91.39
2023-01-17T03:59:42.341Z,91.39
2023-01-17T04:00:42.328Z,91.43
2023-01-17T04:01:42.383Z,91.43
2023-01-17T04:02:42.318Z,91.43
2023-01-17T04:03:42.257Z,91.43
2023-01-17T04:04:42.306Z,91.43
2023-01-17T04:05:42.244Z,91.53
2023-01-17T04:06:42.241Z,91.53
2023-01-17T04:07:42.232Z,91.64
2023-01-17T04:08:42.216Z,91.74
2023-01-17T04:09:42.204Z,91.85
2023-01-17T04:10:42.189Z,91.85
2023-01-17T04:11:42.167Z,91.95
2023-01-17T04:12:42.165Z,91.95
2023-01-17T04:13:42.141Z,91.95
2023-01-17T04:14:42.135Z,92.05
2023-01-17T04:15:42.104Z,92.05
2023-01-17T04:16:42.148Z,92.10
2023-01-17T04:17:42.072Z,92.20
2023-01-17T04:18:42.090Z,92.20
2023-01-17T04:19:42.061Z,92.30
2023-01-17T04:20:42.063Z,92.41
2023-01-17T04:21:42.047Z,92.41
2023-01-17T04:22:42.038Z,92.51
2023-01-17T04:23:41.995Z,92.51
2023-01-17T04:24:42.013Z,92.51
2023-01-17T04:25:41.983Z,92.51
2023-01-17T04:26:42.028Z,92.51
2023-01-17T04:27:41.964Z,92.72
2023-01-17T04:28:41.962Z,92.82
2023-01-17T04:29:41.921Z,92.93
2023-01-17T04:30:41.975Z,92.97
2023-01-17T04:31:41.954Z,93.03
2023-01-17T04:32:41.926Z,93.07
2023-01-17T04:33:41.873Z,92.97
2023-01-17T04:34:41.888Z,93.07
2023-01-17T04:35:41.860Z,93.18
2023-01-17T04:36:41.861Z,93.18
2023-01-17T04:37:41.831Z,93.39
2023-01-17T04:38:41.837Z,93.60
2023-01-17T04:39:41.786Z,93.70
2023-01-17T04:40:41.832Z,93.80
2023-01-17T04:41:41.772Z,93.91
2023-01-17T04:42:41.777Z,93.91
2023-01-17T04:43:41.762Z,93.91
2023-01-17T04:44:41.800Z,93.91
2023-01-17T04:45:41.721Z,93.80
2023-01-17T04:46:41.737Z,93.60
2023-01-17T04:47:41.700Z,93.49
2023-01-17T04:48:41.699Z,93.49
2023-01-17T04:49:43.377Z,93.39
2023-01-17T04:50:41.684Z,93.23
2023-01-17T04:51:41.656Z,93.01
2023-01-17T04:52:41.664Z,92.91
2023-01-17T04:53:41.604Z,93.37
2023-01-17T04:54:41.617Z,93.58
2023-01-17T04:55:41.591Z,93.79
2023-01-17T04:56:41.605Z,93.99
2023-01-17T04:57:41.575Z,94.10
2023-01-17T04:58:41.579Z,94.20
2023-01-17T04:59:41.544Z,94.35
2023-01-17T05:00:41.565Z,94.45
2023-01-17T05:01:41.584Z,94.66
2023-01-17T05:02:41.574Z,94.76
2023-01-17T05:03:41.485Z,94.87
2023-01-17T05:04:41.509Z,95.08
2023-01-17T05:05:41.488Z,95.29
2023-01-17T05:06:41.499Z,95.39
2023-01-17T05:07:41.438Z,95.50
2023-01-17T05:08:41.463Z,95.50
2023-01-17T05:09:41.422Z,95.60
2023-01-17T05:10:41.442Z,95.60
2023-01-17T05:11:41.395Z,95.50
2023-01-17T05:12:41.422Z,95.29
2023-01-17T05:13:41.364Z,94.98
2023-01-17T05:14:41.389Z,94.87
2023-01-17T05:15:41.440Z,94.92
2023-01-17T05:16:41.340Z,94.92
2023-01-17T05:17:41.315Z,95.12
2023-01-17T05:18:41.340Z,95.33
2023-01-17T05:19:41.281Z,95.43
2023-01-17T05:20:41.324Z,95.43
2023-01-17T05:21:41.257Z,95.43
2023-01-17T05:22:41.264Z,95.54
2023-01-17T05:23:41.237Z,95.75
2023-01-17T05:24:41.241Z,95.85
2023-01-17T05:25:41.206Z,95.95
2023-01-17T05:26:41.251Z,95.95
2023-01-17T05:27:41.181Z,96.06
2023-01-17T05:28:41.213Z,96.06
2023-01-17T05:29:41.151Z,96.06
2023-01-17T05:30:41.305Z,96.16
2023-01-17T05:31:41.170Z,96.26
2023-01-17T05:32:41.139Z,96.37
2023-01-17T05:33:41.111Z,96.43
2023-01-17T05:34:41.107Z,96.33
2023-01-17T05:35:41.073Z,96.16
2023-01-17T05:36:41.101Z,95.95
2023-01-17T05:37:41.051Z,95.95
2023-01-17T05:38:41.094Z,95.85
2023-01-17T05:39:41.031Z,95.95
2023-01-17T05:40:41.054Z,96.06
2023-01-17T05:41:41.003Z,96.26
2023-01-17T05:42:41.031Z,96.48
2023-01-17T05:43:40.975Z,96.53
2023-01-17T05:44:41.010Z,96.43
2023-01-17T05:45:40.955Z,96.26
2023-01-17T05:46:41.010Z,96.26
2023-01-17T05:47:40.942Z,96.16
2023-01-17T05:48:40.930Z,96.48
2023-01-17T05:49:40.920Z,96.79
2023-01-17T05:50:40.926Z,96.89
2023-01-17T05:51:40.878Z,97.10
2023-01-17T05:52:40.932Z,97.20
2023-01-17T05:53:40.849Z,97.31
2023-01-17T05:54:40.876Z,97.41
2023-01-17T05:55:40.831Z,97.20
2023-01-17T05:56:40.839Z,97.20
2023-01-17T05:57:40.796Z,97.35
2023-01-17T05:58:40.834Z,97.77
2023-01-17T05:59:40.803Z,97.98
2023-01-17T06:00:40.796Z,98.08
2023-01-17T06:01:40.770Z,98.19
2023-01-17T06:02:40.788Z,98.39
2023-01-17T06:03:40.721Z,98.50
2023-01-17T06:04:40.766Z,98.71
2023-01-17T06:05:40.713Z,98.82
2023-01-17T06:06:40.721Z,98.92
2023-01-17T06:07:40.663Z,99.02
2023-01-17T06:08:40.676Z,99.02
2023-01-17T06:09:40.632Z,99.13
2023-01-17T06:10:40.653Z,99.23
2023-01-17T06:11:40.645Z,99.23
2023-01-17T06:12:40.632Z,99.40
2023-01-17T06:13:40.603Z,99.40
2023-01-17T06:14:40.616Z,99.40
2023-01-17T06:15:40.588Z,99.18
2023-01-17T06:16:40.603Z,98.97
2023-01-17T06:17:40.582Z,98.87
2023-01-17T06:18:40.563Z,98.66
2023-01-17T06:19:40.512Z,98.35
2023-01-17T06:20:40.524Z,98.25
2023-01-17T06:21:40.487Z,98.04
2023-01-17T06:22:40.531Z,97.94
2023-01-17T06:23:40.482Z,97.94
2023-01-17T06:24:40.476Z,97.83
2023-01-17T06:25:40.458Z,97.72
2023-01-17T06:26:40.460Z,97.77
2023-01-17T06:27:40.420Z,97.88
2023-01-17T06:28:40.437Z,98.08
2023-01-17T06:29:40.383Z,98.29
2023-01-17T06:30:40.418Z,98.60
2023-01-17T06:31:40.414Z,98.75
2023-01-17T06:32:40.388Z,99.07
2023-01-17T06:33:40.352Z,99.48
2023-01-17T06:34:40.361Z,99.59
2023-01-17T06:35:40.327Z,99.69
2023-01-17T06:36:40.334Z,99.65
2023-01-17T06:37:40.301Z,99.85
2023-01-17T06:38:40.301Z,99.85
2023-01-17T06:39:40.252Z,99.96
2023-01-17T06:40:40.303Z,99.96
2023-01-17T06:41:40.244Z,99.91
2023-01-17T06:42:40.252Z,99.81
2023-01-17T06:43:40.216Z,99.81
2023-01-17T06:44:40.218Z,99.81
2023-01-17T06:45:40.216Z,99.81
2023-01-17T06:46:40.226Z,99.40
2023-01-17T06:47:40.178Z,99.08
2023-01-17T06:48:40.172Z,98.97
2023-01-17T06:49:40.135Z,98.82
2023-01-17T06:50:40.161Z,99.02
2023-01-17T06:51:41.762Z,99.13
2023-01-17T06:52:40.126Z,99.23
2023-01-17T06:53:40.089Z,99.23
2023-01-17T06:54:40.095Z,99.44
2023-01-17T06:55:40.103Z,99.50
2023-01-17T06:56:40.066Z,99.60
2023-01-17T06:57:40.051Z,99.71
2023-01-17T06:58:40.059Z,99.60
2023-01-17T06:59:39.993Z,99.29
2023-01-17T07:00:41.105Z,98.92
2023-01-17T07:01:40.052Z,98.71
2023-01-17T07:02:40.044Z,98.82
2023-01-17T07:03:39.976Z,98.82
2023-01-17T07:04:39.971Z,98.71
2023-01-17T07:05:39.917Z,98.82
2023-01-17T07:06:39.967Z,99.02
2023-01-17T07:07:39.895Z,99.13
2023-01-17T07:08:39.917Z,99.23
2023-01-17T07:09:39.881Z,99.33
2023-01-17T07:10:39.876Z,99.33
2023-01-17T07:11:39.873Z,99.44
2023-01-17T07:12:39.859Z,99.65
2023-01-17T07:13:39.829Z,99.85
2023-01-17T07:14:39.872Z,99.96
2023-01-17T07:15:39.793Z,99.99
2023-01-17T07:16:39.841Z,99.99
2023-01-17T07:17:39.848Z,99.99
2023-01-17T07:18:39.808Z,99.99
2023-01-17T07:19:39.786Z,99.91
2023-01-17T07:20:39.782Z,99.71
2023-01-17T07:21:39.730Z,99.81
2023-01-17T07:22:39.777Z,99.91
2023-01-17T07:23:39.695Z,99.91
2023-01-17T07:24:39.814Z,99.99
2023-01-17T07:25:39.682Z,99.99
2023-01-17T07:26:39.675Z,99.99
2023-01-17T07:27:39.667Z,99.99
2023-01-17T07:28:39.665Z,99.99
2023-01-17T07:29:39.639Z,99.99
2023-01-17T07:30:39.604Z,99.99
2023-01-17T07:31:39.704Z,99.99
2023-01-17T07:32:39.564Z,99.99
2023-01-17T07:33:39.648Z,99.99
2023-01-17T07:34:39.554Z,99.99
2023-01-17T07:35:39.561Z,99.99
2023-01-17T07:36:39.535Z,99.91
2023-01-17T07:37:39.539Z,99.99
2023-01-17T07:38:39.489Z,99.99
2023-01-17T07:39:39.540Z,99.99
2023-01-17T07:40:42.297Z,99.91
2023-01-17T07:41:39.492Z,99.87
2023-01-17T07:42:39.452Z,99.87
2023-01-17T07:43:39.470Z,99.87
2023-01-17T07:44:41.231Z,99.87
2023-01-17T07:45:39.476Z,99.87
2023-01-17T07:46:39.426Z,99.98
2023-01-17T07:47:39.420Z,99.98
2023-01-17T07:48:39.384Z,99.76
2023-01-17T07:49:39.392Z,99.66
2023-01-17T07:50:39.369Z,99.55
2023-01-17T07:51:39.363Z,99.60
2023-01-17T07:52:39.385Z,99.60
2023-01-17T07:53:39.329Z,99.60
2023-01-17T07:54:39.286Z,99.71
2023-01-17T07:55:39.331Z,99.81
2023-01-17T07:56:39.262Z,99.91
2023-01-17T07:57:39.322Z,99.99
2023-01-17T07:58:39.249Z,99.99
2023-01-17T07:59:39.262Z,99.99
2023-01-17T08:00:39.310Z,99.99
2023-01-17T08:01:39.362Z,99.99
2023-01-17T08:02:39.181Z,99.99
2023-01-17T08:03:39.247Z,99.99
2023-01-17T08:04:39.168Z,99.99
2023-01-17T08:05:39.185Z,99.99
2023-01-17T08:06:39.146Z,99.99
2023-01-17T08:07:39.142Z,99.99
2023-01-17T08:08:39.114Z,99.99
2023-01-17T08:09:39.139Z,99.99
2023-01-17T08:10:39.114Z,99.99
2023-01-17T08:11:39.150Z,99.99
2023-01-17T08:12:39.054Z,99.99
2023-01-17T08:13:39.130Z,99.99
2023-01-17T08:14:39.033Z,99.99
2023-01-17T08:15:39.073Z,99.99
2023-01-17T08:16:39.077Z,99.93
2023-01-17T08:17:39.055Z,99.51
2023-01-17T08:18:38.988Z,99.41
2023-01-17T08:19:38.999Z,99.30
2023-01-17T08:20:38.953Z,99.15
2023-01-17T08:21:38.993Z,99.26
2023-01-17T08:22:38.932Z,99.05
2023-01-17T08:23:38.966Z,99.05
2023-01-17T08:24:38.927Z,98.94
2023-01-17T08:25:38.922Z,98.84
2023-01-17T08:26:38.872Z,98.74
2023-01-17T08:27:38.890Z,98.63
2023-01-17T08:28:38.881Z,98.53
2023-01-17T08:29:38.864Z,98.43
2023-01-17T08:30:38.861Z,98.43
2023-01-17T08:31:39.057Z,98.43
2023-01-17T08:32:38.809Z,98.43
2023-01-17T08:33:38.832Z,98.38
2023-01-17T08:34:38.784Z,98.38
2023-01-17T08:35:38.803Z,98.38
2023-01-17T08:36:38.778Z,98.27
2023-01-17T08:37:38.757Z,98.17
2023-01-17T08:38:38.787Z,98.17
2023-01-17T08:39:38.733Z,98.07
2023-01-17T08:40:38.718Z,97.96
2023-01-17T08:41:38.693Z,97.86
2023-01-17T08:42:38.722Z,97.65
2023-01-17T08:43:38.688Z,97.44
2023-01-17T08:44:38.705Z,97.34
2023-01-17T08:45:38.664Z,97.28
2023-01-17T08:46:38.660Z,97.28
2023-01-17T08:47:38.639Z,97.38
2023-01-17T08:48:38.650Z,97.59
2023-01-17T08:49:38.584Z,97.70
2023-01-17T08:50:38.616Z,97.74
2023-01-17T08:51:38.596Z,97.85
2023-01-17T08:52:38.567Z,97.95
2023-01-17T08:53:38.530Z,98.26
2023-01-17T08:54:38.568Z,98.32
2023-01-17T08:55:38.531Z,98.43
2023-01-17T08:56:38.544Z,98.43
2023-01-17T08:57:38.486Z,98.53
2023-01-17T08:58:38.512Z,98.53
2023-01-17T08:59:38.491Z,98.74
2023-01-17T09:00:38.531Z,98.80
2023-01-17T09:01:38.552Z,98.59
2023-01-17T09:02:38.449Z,98.27
2023-01-17T09:03:40.851Z,98.07
2023-01-17T09:04:38.567Z,98.07
2023-01-17T09:05:38.408Z,97.81
2023-01-17T09:06:38.397Z,97.35
2023-01-17T09:07:38.408Z,96.83
2023-01-17T09:08:38.406Z,96.58
2023-01-17T09:09:38.333Z,96.27
2023-01-17T09:10:38.360Z,95.96
2023-01-17T09:11:38.366Z,95.61
2023-01-17T09:12:38.324Z,95.40
2023-01-17T09:13:38.328Z,95.15
2023-01-17T09:14:38.335Z,94.63
2023-01-17T09:15:38.283Z,93.59
2023-01-17T09:16:38.325Z,92.93
2023-01-17T09:17:38.231Z,92.82
2023-01-17T09:18:38.321Z,93.02
2023-01-17T09:19:38.237Z,92.26
2023-01-17T09:20:38.228Z,91.37
2023-01-17T09:21:38.185Z,90.75
2023-01-17T09:22:38.198Z,90.95
2023-01-17T09:23:38.178Z,91.33
2023-01-17T09:24:38.169Z,91.22
2023-01-17T09:25:38.114Z,91.02
2023-01-17T09:26:38.155Z,90.39
2023-01-17T09:27:38.118Z,89.98
2023-01-17T09:28:38.109Z,89.52
2023-01-17T09:29:38.087Z,88.59
2023-01-17T09:30:38.178Z,88.90
2023-01-17T09:31:38.056Z,88.69
2023-01-17T09:32:38.126Z,88.28
2023-01-17T09:33:38.037Z,88.24
2023-01-17T09:34:38.051Z,87.62
2023-01-17T09:35:38.002Z,87.41
2023-01-17T09:36:37.990Z,87.20
2023-01-17T09:37:37.964Z,86.79
2023-01-17T09:38:38.000Z,87.20
2023-01-17T09:39:37.938Z,87.10
2023-01-17T09:40:37.957Z,86.33
2023-01-17T09:41:37.923Z,85.61
2023-01-17T09:42:37.923Z,85.88
2023-01-17T09:43:40.031Z,85.02
2023-01-17T09:44:37.919Z,84.60
2023-01-17T09:45:37.893Z,84.39
2023-01-17T09:46:37.874Z,83.87
2023-01-17T09:47:37.835Z,84.91
2023-01-17T09:48:37.872Z,84.81
2023-01-17T09:49:37.842Z,83.46
2023-01-17T09:50:37.855Z,83.19
2023-01-17T09:51:37.778Z,84.01
2023-01-17T09:52:37.796Z,84.53
2023-01-17T09:53:37.864Z,83.85
2023-01-17T09:54:37.806Z,84.06
2023-01-17T09:55:37.742Z,84.64
2023-01-17T09:56:37.740Z,85.11
2023-01-17T09:57:37.708Z,82.32
2023-01-17T09:58:37.720Z,80.74
2023-01-17T09:59:37.675Z,82.80
2023-01-17T10:00:37.703Z,81.98
2023-01-17T10:01:37.881Z,80.63
2023-01-17T10:02:37.851Z,78.98
2023-01-17T10:03:37.737Z,79.19
2023-01-17T10:04:37.626Z,78.15
2023-01-17T10:05:37.589Z,74.53
2023-01-17T10:06:37.627Z,75.78
2023-01-17T10:07:37.577Z,76.50
2023-01-17T10:08:37.576Z,75.22
2023-01-17T10:09:37.530Z,74.98
2023-01-17T10:10:37.538Z,72.64
2023-01-17T10:11:37.557Z,74.50
2023-01-17T10:12:37.537Z,74.81
2023-01-17T10:13:37.518Z,75.49
2023-01-17T10:14:37.517Z,74.84
2023-01-17T10:15:37.463Z,72.91
2023-01-17T10:16:37.542Z,74.36
2023-01-17T10:17:37.450Z,75.12
2023-01-17T10:18:37.439Z,75.26
2023-01-17T10:19:37.449Z,73.33
2023-01-17T10:20:37.415Z,73.43
2023-01-17T10:21:37.371Z,73.64
2023-01-17T10:22:37.429Z,73.67
2023-01-17T10:23:37.374Z,73.94
2023-01-17T10:24:37.402Z,73.36
2023-01-17T10:25:37.333Z,75.09
2023-01-17T10:26:37.355Z,76.01
2023-01-17T10:27:37.335Z,73.88
2023-01-17T10:28:37.339Z,75.32
2023-01-17T10:29:37.305Z,73.67
2023-01-17T10:30:37.408Z,72.94
2023-01-17T10:31:37.263Z,72.74
2023-01-17T10:32:37.257Z,73.67
2023-01-17T10:33:37.252Z,74.19
2023-01-17T10:34:37.261Z,73.88
2023-01-17T10:35:37.207Z,71.84
2023-01-17T10:36:37.194Z,72.56
2023-01-17T10:37:37.161Z,73.91
2023-01-17T10:38:37.189Z,72.46
2023-01-17T10:39:37.177Z,74.74
2023-01-17T10:40:37.198Z,73.84
2023-01-17T10:41:37.119Z,73.01
2023-01-17T10:42:37.142Z,75.26
2023-01-17T10:43:37.122Z,76.81
2023-01-17T10:44:37.129Z,75.57
2023-01-17T10:45:37.076Z,75.15
2023-01-17T10:46:37.090Z,75.74
2023-01-17T10:47:37.035Z,73.77
2023-01-17T10:48:37.051Z,74.81
2023-01-17T10:49:37.062Z,73.88
2023-01-17T10:50:37.030Z,75.32
2023-01-17T10:51:37.005Z,74.50
2023-01-17T10:52:37.011Z,75.32
2023-01-17T10:53:36.976Z,74.60
2023-01-17T10:54:37.064Z,76.46
2023-01-17T10:55:36.975Z,74.46
2023-01-17T10:56:36.944Z,72.71
2023-01-17T10:57:36.907Z,73.12
2023-01-17T10:58:36.931Z,72.29
2023-01-17T10:59:36.890Z,73.43
2023-01-17T11:00:36.916Z,72.81
2023-01-17T11:01:36.993Z,73.74
2023-01-17T11:02:37.036Z,72.91
2023-01-17T11:03:36.859Z,73.02
2023-01-17T11:04:36.869Z,73.43
2023-01-17T11:05:36.812Z,72.19
2023-01-17T11:06:46.436Z,74.05
2023-01-17T11:07:37.214Z,74.67
2023-01-17T11:08:36.854Z,74.15
2023-01-17T11:09:36.814Z,72.50
2023-01-17T11:10:36.783Z,74.15
2023-01-17T11:11:36.775Z,72.39
2023-01-17T11:12:36.750Z,72.81
2023-01-17T11:13:36.788Z,72.19
2023-01-17T11:14:36.740Z,72.39
2023-01-17T11:15:36.716Z,74.05
2023-01-17T11:16:37.084Z,74.46
2023-01-17T11:17:36.690Z,73.54
2023-01-17T11:18:36.659Z,72.88
2023-01-17T11:19:36.624Z,74.02
2023-01-17T11:20:36.655Z,74.74
2023-01-17T11:21:36.588Z,74.84
2023-01-17T11:22:36.637Z,75.67
2023-01-17T11:23:36.595Z,73.19
2023-01-17T11:24:36.628Z,74.12
2023-01-17T11:25:36.557Z,74.05
2023-01-17T11:26:36.565Z,76.50
2023-01-17T11:27:36.617Z,75.98
2023-01-17T11:28:36.559Z,73.39
2023-01-17T11:29:37.093Z,74.02
2023-01-17T11:30:36.522Z,74.84
2023-01-17T11:31:36.485Z,74.12
2023-01-17T11:32:36.509Z,74.22
2023-01-17T11:33:36.465Z,74.95
2023-01-17T11:34:36.498Z,73.19
2023-01-17T11:35:36.483Z,72.36
2023-01-17T11:36:36.446Z,72.88
2023-01-17T11:37:36.403Z,73.60
2023-01-17T11:38:36.436Z,72.26
2023-01-17T11:39:36.489Z,72.67
2023-01-17T11:40:36.365Z,74.53
2023-01-17T11:41:36.374Z,74.43
2023-01-17T11:42:36.351Z,75.36
2023-01-17T11:43:36.346Z,76.70
2023-01-17T11:44:36.313Z,75.46
2023-01-17T11:45:36.382Z,74.12
2023-01-17T11:46:36.309Z,75.63
2023-01-17T11:47:36.307Z,76.98
2023-01-17T11:48:36.278Z,76.05
2023-01-17T11:49:36.278Z,74.60
2023-01-17T11:50:36.212Z,72.64
2023-01-17T11:51:36.262Z,72.85
2023-01-17T11:52:36.281Z,73.36
2023-01-17T11:53:36.218Z,72.43
2023-01-17T11:54:36.188Z,70.67
2023-01-17T11:55:36.189Z,69.54
2023-01-17T11:56:36.154Z,70.33
2023-01-17T11:57:36.163Z,71.67
2023-01-17T11:58:36.125Z,70.78
2023-01-17T11:59:36.127Z,72.71
2023-01-17T12:00:36.128Z,72.30
2023-01-17T12:01:36.098Z,71.40
2023-01-17T12:02:36.067Z,73.12
2023-01-17T12:03:36.075Z,72.50
2023-01-17T12:04:36.673Z,67.34
2023-01-17T12:05:36.082Z,66.20
2023-01-17T12:06:47.836Z,65.79
2023-01-17T12:07:36.040Z,68.88
2023-01-17T12:08:36.013Z,68.58
2023-01-17T12:09:36.010Z,69.20
2023-01-17T12:10:35.970Z,68.68
2023-01-17T12:11:36.001Z,69.51
2023-01-17T12:12:35.961Z,67.96
2023-01-17T12:13:35.970Z,66.61
2023-01-17T12:14:35.918Z,66.10
2023-01-17T12:15:35.962Z,63.62
2023-01-17T12:16:35.912Z,64.55
2023-01-17T12:17:35.896Z,62.59
2023-01-17T12:18:35.877Z,61.55
2023-01-17T12:19:35.871Z,60.11
2023-01-17T12:20:35.861Z,64.55
2023-01-17T12:21:35.849Z,66.10
2023-01-17T12:22:35.810Z,68.75
2023-01-17T12:23:35.856Z,65.86
2023-01-17T12:24:35.790Z,66.58
2023-01-17T12:25:35.811Z,66.07
2023-01-17T12:26:35.762Z,66.07
2023-01-17T12:27:35.777Z,63.79
2023-01-17T12:28:35.770Z,66.48
2023-01-17T12:29:35.757Z,63.90
2023-01-17T12:30:35.892Z,65.14
2023-01-17T12:31:35.729Z,64.31
2023-01-17T12:32:35.688Z,66.17
2023-01-17T12:33:35.695Z,65.34
2023-01-17T12:34:35.676Z,65.97
2023-01-17T12:35:35.666Z,65.14
2023-01-17T12:36:35.648Z,65.45
2023-01-17T12:37:35.649Z,64.93
2023-01-17T12:38:35.598Z,63.59
2023-01-17T12:39:35.671Z,62.04
2023-01-17T12:40:35.572Z,62.97
2023-01-17T12:41:35.602Z,64.62
2023-01-17T12:42:35.619Z,64.31
2023-01-17T12:43:35.565Z,64.03
2023-01-17T12:44:35.531Z,66.61
2023-01-17T12:45:35.570Z,66.00
2023-01-17T12:46:35.519Z,67.24
2023-01-17T12:47:35.507Z,68.06
2023-01-17T12:48:35.464Z,68.06
2023-01-17T12:49:35.484Z,68.99
2023-01-17T12:50:35.473Z,68.27
2023-01-17T12:51:35.457Z,67.34
2023-01-17T12:52:35.426Z,65.06